Kings Mountain, North Carolina
Current Conditions -  °F | °C
As of 5:54 PM on Thursday 27 Nov 2014 (Local Time) from KAKH Reporting Station
Clear Clear  
Wind Chill: 39°   Ceiling: Unl
Heat Index: 43°   Visibility: 10mi
Dew Point: 24°   Wind: 6mph
Humidity: 47%   Direction: NA
Pressure: 30.2"   Gusts: NA
Location:  35.24°N, 81.34°W
Report Text: KAKH 272254Z AUTO VRB05KT 10SM CLR 06/M04 A3020 RMK AO2 SLP233 T00611044
Loading
Personal Weather Stations






























Interactive Weather Map New forecast layout! Learn more

10-Day Weather Forecast

Advertisements
Track Severe Weather on mobile